地図

経路データ

SID SEASON NUMBER BASIN SUBBASIN NAME ISO_TIME NATURE LAT LON WMO_WIND WMO_PRES WMO_AGENCY TRACK_TYPE DIST2LAND LANDFALL IFLAG USA_AGENCY USA_ATCF_ID USA_LAT USA_LON USA_RECORD USA_STATUS USA_WIND USA_PRES USA_SSHS USA_R34_NE USA_R34_SE USA_R34_SW USA_R34_NW USA_R50_NE USA_R50_SE USA_R50_SW USA_R50_NW USA_R64_NE USA_R64_SE USA_R64_SW USA_R64_NW USA_POCI USA_ROCI USA_RMW USA_EYE TOKYO_LAT TOKYO_LON TOKYO_GRADE TOKYO_WIND TOKYO_PRES TOKYO_R50_DIR TOKYO_R50_LONG TOKYO_R50_SHORT TOKYO_R30_DIR TOKYO_R30_LONG TOKYO_R30_SHORT TOKYO_LAND CMA_LAT CMA_LON CMA_CAT CMA_WIND CMA_PRES HKO_LAT HKO_LON HKO_CAT HKO_WIND HKO_PRES NEWDELHI_LAT NEWDELHI_LON NEWDELHI_GRADE NEWDELHI_WIND NEWDELHI_PRES NEWDELHI_CI NEWDELHI_DP NEWDELHI_POCI REUNION_LAT REUNION_LON REUNION_TYPE REUNION_WIND REUNION_PRES REUNION_TNUM REUNION_CI REUNION_RMW REUNION_R34_NE REUNION_R34_SE REUNION_R34_SW REUNION_R34_NW REUNION_R50_NE REUNION_R50_SE REUNION_R50_SW REUNION_R50_NW REUNION_R64_NE REUNION_R64_SE REUNION_R64_SW REUNION_R64_NW BOM_LAT BOM_LON BOM_TYPE BOM_WIND BOM_PRES BOM_TNUM BOM_CI BOM_RMW BOM_R34_NE BOM_R34_SE BOM_R34_SW BOM_R34_NW BOM_R50_NE BOM_R50_SE BOM_R50_SW BOM_R50_NW BOM_R64_NE BOM_R64_SE BOM_R64_SW BOM_R64_NW BOM_ROCI BOM_POCI BOM_EYE BOM_POS_METHOD BOM_PRES_METHOD NADI_LAT NADI_LON NADI_CAT NADI_WIND NADI_PRES WELLINGTON_LAT WELLINGTON_LON WELLINGTON_WIND WELLINGTON_PRES DS824_LAT DS824_LON DS824_STAGE DS824_WIND DS824_PRES TD9636_LAT TD9636_LON TD9636_STAGE TD9636_WIND TD9636_PRES TD9635_LAT TD9635_LON TD9635_WIND TD9635_PRES TD9635_ROCI NEUMANN_LAT NEUMANN_LON NEUMANN_CLASS NEUMANN_WIND NEUMANN_PRES MLC_LAT MLC_LON MLC_CLASS MLC_WIND MLC_PRES USA_GUST BOM_GUST BOM_GUST_PER REUNION_GUST REUNION_GUST_PER USA_SEAHGT USA_SEARAD_NE USA_SEARAD_SE USA_SEARAD_SW USA_SEARAD_NW STORM_SPEED STORM_DIR
1866270N25284 1866 24 NA NA NOT_NAMED 1866-09-26 12:00:00 TS 24.7000 -75.8000 main 193 156 _____________O -1 24.7000 -75.8000 TS 35 17 318
1866270N25284 1866 24 NA NA NOT_NAMED 1866-09-26 15:00:00 TS 25.3381 -76.4263 main 156 135 _____________P -1 25.3381 -76.4263 TS 40 17 320
1866270N25284 1866 24 NA NA NOT_NAMED 1866-09-26 18:00:00 TS 26.0000 -77.0000 main 141 141 _____________O -1 26.0000 -77.0000 TS 45 17 325
1866270N25284 1866 24 NA NA NOT_NAMED 1866-09-26 21:00:00 TS 26.6998 -77.4676 main 185 185 _____________P -1 26.6998 -77.4676 TS 50 16 333
1866270N25284 1866 24 NA NA NOT_NAMED 1866-09-27 00:00:00 TS 27.4000 -77.8000 main 227 221 _____________O -1 27.4000 -77.8000 TS 55 14 340
1866270N25284 1866 24 NA NA NOT_NAMED 1866-09-27 03:00:00 TS 28.0498 -78.0178 main 234 233 _____________P -1 28.0498 -78.0178 TS 55 13 348
1866270N25284 1866 24 NA NA NOT_NAMED 1866-09-27 06:00:00 TS 28.7000 -78.1000 main 235 235 _____________O -1 28.7000 -78.1000 TS 55 14 357
1866270N25284 1866 24 NA NA NOT_NAMED 1866-09-27 09:00:00 TS 29.3999 -78.1026 main 253 253 _____________P -1 29.3999 -78.1026 TS 55 14 4
1866270N25284 1866 24 NA NA NOT_NAMED 1866-09-27 12:00:00 TS 30.1000 -78.0000 main 300 290 _____________O -1 30.1000 -78.0000 TS 55 14 10
1866270N25284 1866 24 NA NA NOT_NAMED 1866-09-27 15:00:00 TS 30.7725 -77.8301 main 288 245 _____________P -1 30.7725 -77.8301 TS 55 13 15
1866270N25284 1866 24 NA NA NOT_NAMED 1866-09-27 18:00:00 TS 31.4000 -77.6000 main 245 222 _____________O -1 31.4000 -77.6000 TS 55 13 18
1866270N25284 1866 24 NA NA NOT_NAMED 1866-09-27 21:00:00 TS 31.9724 -77.3720 main 215 177 _____________P -1 31.9724 -77.3720 TS 55 12 21
1866270N25284 1866 24 NA NA NOT_NAMED 1866-09-28 00:00:00 TS 32.5000 -77.1000 main 177 149 _____________O -1 32.5000 -77.1000 TS 55 11 26
1866270N25284 1866 24 NA NA NOT_NAMED 1866-09-28 03:00:00 TS 32.9998 -76.7868 main 149 134 _____________P -1 32.9998 -76.7868 TS 52 12 30
1866270N25284 1866 24 NA NA NOT_NAMED 1866-09-28 06:00:00 TS 33.5000 -76.4000 main 134 90 _____________O -1 33.5000 -76.4000 TS 50 13 34
1866270N25284 1866 24 NA NA NOT_NAMED 1866-09-28 09:00:00 TS 34.0500 -75.9225 main 86 84 _____________P -1 34.0500 -75.9225 TS 47 14 37
1866270N25284 1866 24 NA NA NOT_NAMED 1866-09-28 12:00:00 TS 34.6000 -75.4000 main 88 84 _____________O -1 34.6000 -75.4000 TS 45 14 38
1866270N25284 1866 24 NA NA NOT_NAMED 1866-09-28 15:00:00 TS 35.1221 -74.9143 main 91 84 _____________P -1 35.1221 -74.9143 TS 45 13 39
1866270N25284 1866 24 NA NA NOT_NAMED 1866-09-28 18:00:00 TS 35.6000 -74.4000 main 101 101 _____________O -1 35.6000 -74.4000 TS 45 13 45
1866270N25284 1866 24 NA NA NOT_NAMED 1866-09-28 21:00:00 TS 36.0225 -73.8071 main 154 154 _____________P -1 36.0225 -73.8071 TS 45 13 51
1866270N25284 1866 24 NA NA NOT_NAMED 1866-09-29 00:00:00 TS 36.4000 -73.2000 main 216 216 _____________O -1 36.4000 -73.2000 TS 45 12 51
1866270N25284 1866 24 NA NA NOT_NAMED 1866-09-29 03:00:00 TS 36.7645 -72.6493 main 276 276 _____________P -1 36.7645 -72.6493 TS 45 11 52
1866270N25284 1866 24 NA NA NOT_NAMED 1866-09-29 06:00:00 TS 37.1000 -72.1000 main 295 295 _____________O -1 37.1000 -72.1000 TS 45 11 55
1866270N25284 1866 24 NA NA NOT_NAMED 1866-09-29 09:00:00 TS 37.4074 -71.4995 main 330 330 _____________P -1 37.4074 -71.4995 TS 45 11 58
1866270N25284 1866 24 NA NA NOT_NAMED 1866-09-29 12:00:00 TS 37.7000 -70.9000 main 356 356 _____________O -1 37.7000 -70.9000 TS 45 9 56
1866270N25284 1866 24 NA NA NOT_NAMED 1866-09-29 15:00:00 TS 37.9430 -70.5091 main 369 359 _____________P -1 37.9430 -70.5091 TS 45 11 55
1866270N25284 1866 24 NA NA NOT_NAMED 1866-09-29 18:00:00 TS 38.3000 -69.8000 main 364 336 _____________O -1 38.3000 -69.8000 TS 45 19 60
1866270N25284 1866 24 NA NA NOT_NAMED 1866-09-29 21:00:00 TS 38.9005 -68.4211 main 339 334 _____________P -1 38.9005 -68.4211 TS 45 29 64
1866270N25284 1866 24 NA NA NOT_NAMED 1866-09-30 00:00:00 TS 39.6000 -66.4000 main 382 382 _____________O -1 39.6000 -66.4000 TS 45 38 70
1866270N25284 1866 24 NA NA NOT_NAMED 1866-09-30 03:00:00 TS 40.2135 -63.8041 main 387 385 _____________P -1 40.2135 -63.8041 TS 45 43 74
1866270N25284 1866 24 NA NA NOT_NAMED 1866-09-30 06:00:00 TS 40.8000 -61.0000 main 452 452 _____________O -1 40.8000 -61.0000 TS 45 42 74
1866270N25284 1866 24 NA NA NOT_NAMED 1866-09-30 09:00:00 TS 41.3958 -58.4847 main 471 471 _____________P -1 41.3958 -58.4847 TS 45 38 72
1866270N25284 1866 24 NA NA NOT_NAMED 1866-09-30 12:00:00 TS 42.0000 -56.2000 main 522 447 _____________O -1 42.0000 -56.2000 TS 45 35 69
1866270N25284 1866 24 NA NA NOT_NAMED 1866-09-30 15:00:00 TS 42.6278 -54.0633 main 446 383 _____________P -1 42.6278 -54.0633 TS 47 31 67
1866270N25284 1866 24 NA NA NOT_NAMED 1866-09-30 18:00:00 ET 43.2000 -52.3000 main 384 368 _____________O -1 43.2000 -52.3000 EX 50 24 66
1866270N25284 1866 24 NA NA NOT_NAMED 1866-09-30 21:00:00 ET 43.6240 -51.0313 main 375 367 _____________P -1 43.6240 -51.0313 EX 50 18 64
1866270N25284 1866 24 NA NA NOT_NAMED 1866-10-01 00:00:00 ET 44.0000 -50.0000 main 381 381 _____________O -1 44.0000 -50.0000 EX 50 17 64
1866270N25284 1866 24 NA NA NOT_NAMED 1866-10-01 03:00:00 ET 44.3972 -48.8573 main 413 413 _____________P -1 44.3972 -48.8573 EX 52 19 65
1866270N25284 1866 24 NA NA NOT_NAMED 1866-10-01 06:00:00 ET 44.8000 -47.6000 main 472 472 _____________O -1 44.8000 -47.6000 EX 55 21 68
1866270N25284 1866 24 NA NA NOT_NAMED 1866-10-01 09:00:00 ET 45.1927 -46.0933 main 558 558 _____________P -1 45.1927 -46.0933 EX 55 23 70
1866270N25284 1866 24 NA NA NOT_NAMED 1866-10-01 12:00:00 ET 45.6000 -44.5000 main 651 651 _____________O -1 45.6000 -44.5000 EX 55 23 68
1866270N25284 1866 24 NA NA NOT_NAMED 1866-10-01 15:00:00 ET 46.0468 -43.0131 main 746 746 _____________P -1 46.0468 -43.0131 EX 57 23 67
1866270N25284 1866 24 NA NA NOT_NAMED 1866-10-01 18:00:00 ET 46.5000 -41.5000 main 844 844 _____________O -1 46.5000 -41.5000 EX 60 23 69
1866270N25284 1866 24 NA NA NOT_NAMED 1866-10-01 21:00:00 ET 46.8986 -39.8691 main 956 956 _____________P -1 46.8986 -39.8691 EX 60 24 70
1866270N25284 1866 24 NA NA NOT_NAMED 1866-10-02 00:00:00 ET 47.3000 -38.2000 main 1077 1077 _____________O -1 47.3000 -38.2000 EX 60 24 69
1866270N25284 1866 24 NA NA NOT_NAMED 1866-10-02 03:00:00 ET 47.7476 -36.5486 main 1199 1198 _____________P -1 47.7476 -36.5486 EX 60 24 68
1866270N25284 1866 24 NA NA NOT_NAMED 1866-10-02 06:00:00 ET 48.2000 -34.9000 main 1314 1314 _____________O -1 48.2000 -34.9000 EX 60 24 69
1866270N25284 1866 24 NA NA NOT_NAMED 1866-10-02 09:00:00 ET 48.5977 -33.2460 main 1421 1417 _____________P -1 48.5977 -33.2460 EX 60 23 70
1866270N25284 1866 24 NA NA NOT_NAMED 1866-10-02 12:00:00 ET 49.0000 -31.6000 main 1429 1393 _____________O -1 49.0000 -31.6000 EX 60 23 69
1866270N25284 1866 24 NA NA NOT_NAMED 1866-10-02 15:00:00 ET 49.4421 -29.9573 main 1393 1266 _____________P -1 49.4421 -29.9573 EX 60 23 67
1866270N25284 1866 24 NA NA NOT_NAMED 1866-10-02 18:00:00 ET 49.9000 -28.3000 main 1259 _____________O -1 49.9000 -28.3000 EX 60 23 67

IBTrACS Databaseについて

本データベースは、米国NOAAが公開する1842年以降の世界の熱帯低気圧のベストトラックデータアーカイブInternational Best Track Archive for Climate Stewardship (IBTrACS)を、ウェブで閲覧しやすい形式に変換したものです。

最終更新日:2021-12-03